Time;durP1;ratioP1;P1;durP2;ratioP2;P2;SDS_P1;SDS_P2;PMS_P1;PMS_P2;Temp;Humidity;BMP_temperature;BMP_pressure;BME280_temperature;BME280_humidity;BME280_pressure;Samples;Min_cycle;Max_cycle;Signal;HPM_P1;HPM_P2
2023/03/19 00:02:23;;;;;;;36.97;21.57;;;;;;;5.46;51.10;101986.41;5015747;28;20512;-78
2023/03/19 00:04:49;;;;;;;35.78;21.02;;;;;;;5.32;51.39;101992.59;5015422;28;20963;-78
2023/03/19 00:07:15;;;;;;;32.58;19.58;;;;;;;5.06;52.08;101981.22;5014511;28;20388;-78
2023/03/19 00:09:41;;;;;;;29.25;18.13;;;;;;;4.91;52.75;101984.88;5018583;28;20411;-78
2023/03/19 00:12:07;;;;;;;31.67;17.80;;;;;;;4.93;52.91;101985.59;5017490;28;20431;-78
2023/03/19 00:14:33;;;;;;;33.50;19.17;;;;;;;4.97;52.22;101984.47;5016516;28;20418;-78
2023/03/19 00:16:58;;;;;;;31.07;18.93;;;;;;;4.97;52.71;101976.59;5013762;28;20396;-78
2023/03/19 00:19:24;;;;;;;29.52;18.33;;;;;;;4.94;52.42;101982.88;5016373;28;20392;-78
2023/03/19 00:21:50;;;;;;;28.83;18.45;;;;;;;4.87;52.26;101986.84;5015913;28;20399;-78
2023/03/19 00:24:16;;;;;;;22.90;14.63;;;;;;;4.80;51.76;101985.56;5015415;28;20403;-78
2023/03/19 00:26:42;;;;;;;29.20;16.60;;;;;;;4.74;52.02;101980.72;5016166;28;20396;-78
2023/03/19 00:29:08;;;;;;;25.85;15.30;;;;;;;4.89;51.26;101992.00;5016308;28;20400;-78
2023/03/19 00:31:34;;;;;;;21.75;13.55;;;;;;;5.02;50.46;101984.97;5014670;28;20492;-78
2023/03/19 00:34:01;;;;;;;18.08;11.40;;;;;;;5.09;50.22;101988.88;5016035;28;20404;-77
2023/03/19 00:36:27;;;;;;;18.17;11.43;;;;;;;5.07;50.00;101976.81;5015173;28;20388;-78
2023/03/19 00:38:53;;;;;;;16.08;10.02;;;;;;;5.08;50.18;101983.75;5015710;28;20399;-78
2023/03/19 00:41:19;;;;;;;23.10;11.70;;;;;;;4.98;49.69;101984.34;5014399;28;20388;-78
2023/03/19 00:43:46;;;;;;;17.63;9.30;;;;;;;4.92;49.36;101987.41;5015551;28;20733;-78
2023/03/19 00:46:12;;;;;;;17.25;10.23;;;;;;;4.89;49.26;101979.69;5015292;28;20462;-78
2023/03/19 00:48:37;;;;;;;17.97;10.13;;;;;;;4.83;49.03;101980.13;5015347;28;20785;-78
2023/03/19 00:51:08;;;;;;;14.77;9.37;;;;;;;4.82;49.23;101981.06;5015670;28;20988;-78
2023/03/19 00:53:38;;;;;;;13.43;8.85;;;;;;;4.66;49.81;101973.34;5015005;28;20391;-78
2023/03/19 00:56:06;;;;;;;16.17;9.57;;;;;;;4.60;49.63;101968.50;4997922;28;20380;-78
2023/03/19 00:58:31;;;;;;;11.88;7.90;;;;;;;4.57;49.83;101972.19;5014625;28;20403;-78
2023/03/19 01:00:57;;;;;;;15.90;8.93;;;;;;;4.72;49.33;101970.31;5013035;28;20471;-78
2023/03/19 01:03:22;;;;;;;19.50;11.03;;;;;;;4.73;49.13;101982.50;5014399;28;20394;-78
2023/03/19 01:05:48;;;;;;;18.17;10.50;;;;;;;4.62;48.98;101979.72;5014410;28;20431;-78
2023/03/19 01:08:15;;;;;;;16.63;10.85;;;;;;;4.53;49.47;101975.91;5014217;28;21104;-78
2023/03/19 01:10:41;;;;;;;15.75;10.10;;;;;;;4.37;49.66;101989.19;5014707;28;20411;-78
2023/03/19 01:13:06;;;;;;;14.03;8.80;;;;;;;4.41;49.50;101981.97;5012641;28;20493;-77
2023/03/19 01:15:36;;;;;;;13.93;8.33;;;;;;;4.45;49.39;101974.72;5011073;28;20951;-77
2023/03/19 01:18:02;;;;;;;14.18;8.27;;;;;;;4.38;49.34;101971.69;5011371;28;20392;-78
2023/03/19 01:20:27;;;;;;;10.90;6.78;;;;;;;4.43;49.48;101971.34;5007536;28;20397;-78
2023/03/19 01:22:52;;;;;;;12.18;6.63;;;;;;;4.48;48.94;101964.88;5002079;28;20396;-78
2023/03/19 01:25:18;;;;;;;12.00;7.53;;;;;;;4.49;48.63;101969.19;5011436;28;20423;-78
2023/03/19 01:27:43;;;;;;;13.63;8.17;;;;;;;4.45;48.75;101956.34;5012641;28;20427;-79
2023/03/19 01:30:09;;;;;;;16.47;8.97;;;;;;;4.47;49.03;101960.56;5014394;28;20416;-79
2023/03/19 01:32:35;;;;;;;13.32;8.32;;;;;;;4.49;48.65;101960.47;5013891;28;20392;-78
2023/03/19 01:35:00;;;;;;;12.97;7.30;;;;;;;4.46;48.84;101958.88;5013603;28;21118;-78
2023/03/19 01:37:26;;;;;;;12.52;7.35;;;;;;;4.39;49.16;101961.09;5016144;28;20388;-78
2023/03/19 01:39:51;;;;;;;11.68;7.05;;;;;;;4.37;48.86;101955.06;5016161;28;20423;-79
2023/03/19 01:42:17;;;;;;;12.80;7.30;;;;;;;4.32;48.89;101951.06;5015309;28;20422;-79
2023/03/19 01:44:43;;;;;;;12.00;7.30;;;;;;;4.27;48.92;101956.63;5015346;28;20483;-78
2023/03/19 01:47:32;;;;;;;12.38;7.50;;;;;;;4.18;49.46;101955.41;5024931;28;20395;-78
2023/03/19 01:49:58;;;;;;;11.38;7.32;;;;;;;4.13;49.92;101956.66;5034612;28;20431;-78
2023/03/19 01:52:30;;;;;;;50.15;35.15;;;;;;;3.99;49.70;101949.63;5032868;28;20414;-79
2023/03/19 01:54:58;;;;;;;15.75;8.40;;;;;;;3.93;49.87;101947.41;5019938;28;20396;-78
2023/03/19 01:57:24;;;;;;;14.52;8.10;;;;;;;3.79;50.42;101937.78;5019258;28;20444;-77
2023/03/19 01:59:53;;;;;;;15.98;10.48;;;;;;;3.72;50.55;101942.53;5017874;28;20388;-77
2023/03/19 02:02:26;;;;;;;16.95;12.25;;;;;;;3.83;50.86;101940.13;5018631;28;20884;-78
2023/03/19 02:05:06;;;;;;;15.40;9.10;;;;;;;3.84;50.47;101940.97;5018167;28;20400;-77
2023/03/19 02:07:34;;;;;;;17.08;9.73;;;;;;;3.91;50.48;101949.28;5017577;28;20392;-78
2023/03/19 02:10:02;;;;;;;14.73;9.55;;;;;;;3.97;50.17;101947.09;5010692;28;20903;-78
2023/03/19 02:12:28;;;;;;;14.85;8.45;;;;;;;3.87;50.78;101947.78;5010757;28;20442;-78
2023/03/19 02:14:54;;;;;;;14.70;7.70;;;;;;;3.64;51.27;101952.69;5011233;28;20490;-78
2023/03/19 02:17:20;;;;;;;11.25;6.32;;;;;;;3.30;52.14;101964.38;5011155;28;20450;-79
2023/03/19 02:20:01;;;;;;;7.85;4.63;;;;;;;2.98;52.36;101956.63;5011364;28;20392;-78
2023/03/19 02:22:30;;;;;;;9.38;5.30;;;;;;;3.00;52.42;101960.84;5012553;28;20403;-78
2023/03/19 02:25:01;;;;;;;9.63;5.97;;;;;;;3.09;52.18;101969.09;5010962;28;20427;-78
2023/03/19 02:27:27;;;;;;;10.27;7.10;;;;;;;3.15;51.80;101968.72;5010986;28;20400;-78
2023/03/19 02:29:52;;;;;;;10.95;6.50;;;;;;;3.14;51.78;101967.91;5010208;28;20416;-78
2023/03/19 02:32:18;;;;;;;8.90;6.17;;;;;;;3.09;51.84;101966.47;5011097;28;20478;-78
2023/03/19 02:34:44;;;;;;;9.77;6.10;;;;;;;2.96;51.95;101964.59;5010529;28;20396;-78
2023/03/19 02:37:16;;;;;;;9.13;5.68;;;;;;;2.90;52.35;101964.09;5010927;28;20388;-78
2023/03/19 02:40:02;;;;;;;12.13;7.20;;;;;;;2.84;52.50;101960.88;5012910;28;20395;-79
2023/03/19 02:42:29;;;;;;;11.88;7.95;;;;;;;2.98;52.10;101959.25;4998088;28;20715;-79
2023/03/19 02:44:55;;;;;;;12.10;8.43;;;;;;;3.07;51.87;101963.94;5010771;28;20483;-78
2023/03/19 02:47:20;;;;;;;15.75;9.48;;;;;;;3.16;51.43;101957.31;5010921;28;20403;-77
2023/03/19 02:49:46;;;;;;;14.73;9.37;;;;;;;3.34;50.78;101958.00;5010430;28;20409;-77
2023/03/19 02:52:11;;;;;;;14.87;9.90;;;;;;;3.41;50.67;101960.16;5010811;28;20399;-79
2023/03/19 02:54:37;;;;;;;17.47;11.03;;;;;;;3.40;50.74;101960.25;5010755;28;20415;-78
2023/03/19 02:57:03;;;;;;;16.83;10.60;;;;;;;3.39;50.76;101964.66;5011775;28;20975;-78
2023/03/19 02:59:28;;;;;;;15.93;9.68;;;;;;;3.43;50.46;101960.06;5012167;28;20472;-78
2023/03/19 03:01:54;;;;;;;12.63;8.20;;;;;;;3.52;50.44;101963.91;5010330;28;20392;-78
2023/03/19 03:04:19;;;;;;;9.98;6.07;;;;;;;3.52;50.43;101967.38;5012461;28;20736;-78
2023/03/19 03:06:45;;;;;;;11.07;6.40;;;;;;;3.47;50.68;101966.81;5010257;28;20392;-77
2023/03/19 03:09:12;;;;;;;11.40;6.10;;;;;;;3.45;50.57;101972.13;5026528;28;20388;-77
2023/03/19 03:11:40;;;;;;;10.20;6.75;;;;;;;3.41;50.33;101961.94;5010651;28;20918;-77
2023/03/19 03:14:05;;;;;;;19.02;10.57;;;;;;;3.44;50.66;101959.16;5011521;28;20426;-77
2023/03/19 03:16:31;;;;;;;15.30;8.98;;;;;;;3.43;50.54;101960.91;5013458;28;20391;-78
2023/03/19 03:18:57;;;;;;;15.18;9.95;;;;;;;3.48;50.42;101963.25;5012259;28;20965;-78
2023/03/19 03:21:23;;;;;;;13.03;8.93;;;;;;;3.31;51.15;101963.41;5013073;28;20869;-78
2023/03/19 03:23:48;;;;;;;10.43;6.87;;;;;;;3.06;51.76;101970.97;5013941;28;20864;-78
2023/03/19 03:26:14;;;;;;;11.73;6.43;;;;;;;2.98;51.79;101957.47;5011493;28;20415;-79
2023/03/19 03:28:40;;;;;;;8.23;4.63;;;;;;;2.69;52.70;101964.41;5011930;28;20399;-79
2023/03/19 03:31:05;;;;;;;8.60;4.87;;;;;;;2.42;53.40;101969.44;5011980;28;20415;-78
2023/03/19 03:33:31;;;;;;;7.97;5.03;;;;;;;2.46;53.18;101965.69;5012421;28;20457;-77
2023/03/19 03:35:57;;;;;;;8.18;5.18;;;;;;;2.46;53.18;101961.31;5011391;28;20511;-79
2023/03/19 03:38:22;;;;;;;6.83;5.40;;;;;;;2.45;52.81;101961.41;5012457;28;20475;-78
2023/03/19 03:40:52;;;;;;;8.97;5.13;;;;;;;2.58;52.58;101974.66;5012739;28;20399;-77
2023/03/19 03:43:21;;;;;;;6.57;4.82;;;;;;;2.57;52.41;101957.25;5011330;28;20392;-78
2023/03/19 03:45:47;;;;;;;7.05;5.00;;;;;;;2.51;52.53;101971.53;5012000;28;20394;-78
2023/03/19 03:48:13;;;;;;;7.90;5.22;;;;;;;2.43;53.17;101982.44;5011742;28;20392;-77
2023/03/19 03:50:39;;;;;;;9.48;5.50;;;;;;;2.22;53.61;101976.59;5010300;28;20834;-78
2023/03/19 03:53:05;;;;;;;7.85;5.13;;;;;;;2.11;53.67;101978.97;5009787;28;20962;-77
2023/03/19 03:55:31;;;;;;;8.57;5.32;;;;;;;2.16;53.65;101984.81;5011300;28;20400;-78
2023/03/19 03:57:57;;;;;;;8.37;5.43;;;;;;;2.31;53.07;101984.91;5015123;28;20396;-79
2023/03/19 04:00:23;;;;;;;7.75;5.45;;;;;;;2.34;53.03;101974.22;5015427;28;20423;-77
2023/03/19 04:02:49;;;;;;;9.68;5.65;;;;;;;2.45;52.52;101982.34;5016323;28;20396;-79
2023/03/19 04:05:15;;;;;;;7.10;5.10;;;;;;;2.57;52.25;101986.88;5014420;28;20471;-78
2023/03/19 04:07:41;;;;;;;7.83;5.17;;;;;;;2.65;51.79;101976.81;5014704;28;20392;-77
2023/03/19 04:10:09;;;;;;;9.38;5.60;;;;;;;2.64;51.72;101977.75;5011940;28;20946;-78
2023/03/19 04:12:36;;;;;;;9.63;5.57;;;;;;;2.53;51.95;101985.38;5014021;28;20420;-78
2023/03/19 04:15:03;;;;;;;7.63;5.07;;;;;;;2.42;52.38;101980.72;5013676;28;20428;-78
2023/03/19 04:17:29;;;;;;;8.95;5.25;;;;;;;2.16;53.34;101990.03;5013898;28;21015;-77
2023/03/19 04:19:55;;;;;;;10.02;5.30;;;;;;;1.91;54.10;101983.50;5013752;28;20483;-78
2023/03/19 04:22:20;;;;;;;9.50;5.90;;;;;;;1.99;54.11;101984.88;5013296;28;20845;-77
2023/03/19 04:24:46;;;;;;;10.15;5.78;;;;;;;2.13;53.98;101986.75;5014131;28;20419;-78
2023/03/19 04:27:11;;;;;;;10.48;6.10;;;;;;;2.32;53.52;101997.03;5014208;28;20396;-78
2023/03/19 04:29:37;;;;;;;11.50;7.40;;;;;;;2.41;53.05;101981.69;5013811;28;20398;-77
2023/03/19 04:32:03;;;;;;;12.77;8.00;;;;;;;2.41;53.14;101994.78;5013720;28;20404;-78
2023/03/19 04:34:28;;;;;;;12.75;7.68;;;;;;;2.32;53.23;101989.19;5013728;28;20419;-78
2023/03/19 04:36:55;;;;;;;9.70;6.47;;;;;;;2.13;53.63;101991.97;5013379;28;20389;-78
2023/03/19 04:39:20;;;;;;;11.02;6.15;;;;;;;2.08;53.88;101992.22;5013059;28;20861;-77
2023/03/19 04:41:46;;;;;;;10.90;6.53;;;;;;;1.77;54.93;101991.25;5013942;28;20392;-77
2023/03/19 04:44:12;;;;;;;10.63;6.80;;;;;;;1.70;55.31;101993.34;5013484;28;20415;-78
2023/03/19 04:46:38;;;;;;;10.13;6.30;;;;;;;1.88;54.91;101994.13;5014181;28;20473;-79
2023/03/19 04:49:03;;;;;;;12.07;6.63;;;;;;;2.11;54.44;101989.44;5016302;28;20396;-77
2023/03/19 04:51:28;;;;;;;11.73;6.83;;;;;;;2.30;53.97;101989.25;5034081;28;20737;-78
2023/03/19 04:53:54;;;;;;;11.30;7.13;;;;;;;2.31;53.53;101979.66;5035801;28;20472;-78
2023/03/19 04:56:20;;;;;;;9.48;6.63;;;;;;;2.36;53.68;101981.09;5028298;28;20868;-78
2023/03/19 04:58:46;;;;;;;10.40;7.07;;;;;;;2.37;53.75;101974.06;5016962;28;20396;-79
2023/03/19 05:01:11;;;;;;;11.27;7.13;;;;;;;2.62;53.28;101976.16;5013504;28;20391;-78
2023/03/19 05:03:37;;;;;;;12.13;7.37;;;;;;;2.77;52.86;101969.19;5012431;28;20400;-77
2023/03/19 05:06:03;;;;;;;10.60;7.10;;;;;;;2.93;52.55;101977.00;5021200;28;20453;-78
2023/03/19 05:08:28;;;;;;;10.93;7.10;;;;;;;2.94;52.32;101969.06;5013783;28;20396;-78
2023/03/19 05:10:54;;;;;;;9.60;6.70;;;;;;;3.06;52.25;101970.97;5011324;28;20480;-77
2023/03/19 05:13:19;;;;;;;9.53;6.77;;;;;;;3.09;52.20;101966.47;5011267;28;20416;-77
2023/03/19 05:15:46;;;;;;;11.80;7.50;;;;;;;3.09;52.13;101972.56;5012148;28;20411;-77
2023/03/19 05:18:12;;;;;;;11.43;7.78;;;;;;;3.10;52.44;101979.50;5012261;28;20392;-79
2023/03/19 05:20:41;;;;;;;15.52;10.20;;;;;;;3.11;52.71;101972.47;5010618;28;20412;-77
2023/03/19 05:23:07;;;;;;;13.70;8.87;;;;;;;3.19;52.27;101970.25;5013481;28;20403;-79
2023/03/19 05:25:34;;;;;;;13.67;8.80;;;;;;;3.31;52.43;101974.75;5016633;28;20400;-80
2023/03/19 05:28:00;;;;;;;14.48;8.80;;;;;;;3.37;52.44;101965.69;5013319;28;20415;-79
2023/03/19 05:30:26;;;;;;;18.75;10.82;;;;;;;3.49;52.29;101964.94;5013008;28;20881;-78
2023/03/19 05:32:51;;;;;;;18.25;9.95;;;;;;;3.64;52.21;101969.25;5011995;28;20406;-78
2023/03/19 05:35:17;;;;;;;19.63;11.10;;;;;;;3.84;52.02;101977.69;5011259;28;20380;-78
2023/03/19 05:37:42;;;;;;;18.90;10.48;;;;;;;3.86;51.91;101978.44;5012317;28;20454;-77
2023/03/19 05:40:09;;;;;;;15.57;10.13;;;;;;;3.77;52.46;101974.59;5011654;28;20396;-78
2023/03/19 05:42:34;;;;;;;16.20;9.77;;;;;;;3.77;52.34;101979.81;5012394;28;20403;-77
2023/03/19 05:45:00;;;;;;;15.98;9.93;;;;;;;3.80;52.57;101986.69;5011790;28;20748;-76
2023/03/19 05:47:25;;;;;;;14.63;9.40;;;;;;;3.74;53.13;101989.66;5010320;28;20391;-78
2023/03/19 05:49:51;;;;;;;15.80;10.20;;;;;;;3.64;53.35;101989.41;5011742;28;20483;-77
2023/03/19 05:52:16;;;;;;;15.20;9.77;;;;;;;3.68;53.52;101990.06;5011832;28;20483;-78
2023/03/19 05:54:42;;;;;;;13.63;8.07;;;;;;;3.71;53.31;102002.97;5010938;28;20392;-78
2023/03/19 05:57:07;;;;;;;18.73;10.93;;;;;;;3.54;53.48;102004.81;5012301;28;20388;-77
2023/03/19 05:59:34;;;;;;;13.70;9.32;;;;;;;3.62;53.45;102002.59;5012417;28;20473;-79
2023/03/19 06:01:59;;;;;;;17.55;11.00;;;;;;;3.68;53.11;102000.53;5011927;28;20404;-78
2023/03/19 06:04:25;;;;;;;13.63;8.77;;;;;;;3.76;52.76;101993.91;5010478;28;20396;-78
2023/03/19 06:06:50;;;;;;;14.05;8.57;;;;;;;3.87;52.99;102002.88;5011560;28;20526;-78
2023/03/19 06:09:16;;;;;;;15.73;9.63;;;;;;;3.93;53.09;101998.09;5010931;28;20395;-78
2023/03/19 06:11:41;;;;;;;15.98;9.70;;;;;;;3.93;53.30;101999.88;5011781;28;20466;-78
2023/03/19 06:14:07;;;;;;;17.53;9.70;;;;;;;4.04;53.33;102001.84;5011714;28;20423;-78
2023/03/19 06:16:33;;;;;;;12.70;9.13;;;;;;;4.29;52.68;102004.59;5010846;28;20418;-78
2023/03/19 06:18:58;;;;;;;15.27;9.53;;;;;;;4.44;52.88;102001.94;5010056;28;20380;-78
2023/03/19 06:21:28;;;;;;;17.93;10.63;;;;;;;4.59;52.79;102008.81;5009383;28;20392;-77
2023/03/19 06:23:55;;;;;;;21.53;11.20;;;;;;;4.60;52.63;102003.47;5011631;28;20486;-78
2023/03/19 06:26:21;;;;;;;22.97;12.47;;;;;;;4.76;53.09;102013.81;5011494;28;20467;-79
2023/03/19 06:28:46;;;;;;;19.70;11.60;;;;;;;4.97;52.30;102003.69;5010874;28;20479;-77
2023/03/19 06:31:12;;;;;;;19.10;12.70;;;;;;;5.20;52.69;102011.00;5011061;28;20419;-78
2023/03/19 06:33:37;;;;;;;21.07;12.77;;;;;;;5.31;52.77;102013.72;5011449;28;20864;-78
2023/03/19 06:36:03;;;;;;;19.70;12.05;;;;;;;5.39;52.45;102002.72;5011711;28;20394;-78
2023/03/19 06:38:28;;;;;;;19.88;12.40;;;;;;;5.52;52.52;102008.81;5011093;28;20388;-78
2023/03/19 06:40:54;;;;;;;23.88;13.77;;;;;;;5.61;52.52;102008.16;5010294;28;20376;-77
2023/03/19 06:43:19;;;;;;;22.10;13.73;;;;;;;5.79;52.30;102011.31;5011042;28;20396;-78
2023/03/19 06:45:45;;;;;;;22.10;13.73;;;;;;;5.92;51.87;102000.78;5010744;28;20381;-77
2023/03/19 06:48:11;;;;;;;18.60;13.32;;;;;;;5.96;52.09;101993.53;5011349;28;20864;-79
2023/03/19 06:50:36;;;;;;;20.37;13.53;;;;;;;6.17;52.11;102007.81;5013969;28;20419;-79
2023/03/19 06:53:02;;;;;;;22.67;14.37;;;;;;;6.16;52.01;102008.78;5033988;28;20863;-78
2023/03/19 06:55:29;;;;;;;28.05;14.07;;;;;;;6.27;51.82;101997.47;5032654;28;20382;-81
2023/03/19 06:57:55;;;;;;;23.53;15.43;;;;;;;6.35;52.04;102000.38;5014810;28;20388;-78
2023/03/19 07:00:21;;;;;;;19.90;13.23;;;;;;;6.42;51.35;102006.88;5020632;28;20464;-79
2023/03/19 07:02:46;;;;;;;19.13;13.50;;;;;;;6.52;51.57;102012.34;5031237;28;20382;-80
2023/03/19 07:05:12;;;;;;;21.90;13.73;;;;;;;6.64;51.53;102021.13;5021739;28;20414;-78
2023/03/19 07:07:38;;;;;;;25.60;14.63;;;;;;;6.77;51.68;102014.03;5030873;28;20385;-78
2023/03/19 07:10:04;;;;;;;23.07;13.60;;;;;;;6.97;51.40;102006.41;5029258;28;20728;-80
2023/03/19 07:12:29;;;;;;;21.83;14.43;;;;;;;7.13;51.11;102008.75;5019329;28;20507;-78
2023/03/19 07:14:55;;;;;;;24.10;13.90;;;;;;;7.25;50.62;102002.56;5011862;28;20486;-79
2023/03/19 07:17:22;;;;;;;20.87;13.60;;;;;;;7.44;50.79;101999.38;5022484;28;20481;-78
2023/03/19 07:19:48;;;;;;;21.08;13.25;;;;;;;7.50;50.80;101995.41;5021596;28;20428;-78
2023/03/19 07:22:13;;;;;;;19.35;13.50;;;;;;;7.62;50.45;102000.56;5023138;28;20477;-79
2023/03/19 07:24:39;;;;;;;22.00;13.97;;;;;;;7.76;50.88;101999.50;5023950;28;20372;-78
2023/03/19 07:27:04;;;;;;;18.00;12.93;;;;;;;7.91;50.58;101991.34;5024757;28;20402;-77
2023/03/19 07:29:30;;;;;;;19.60;13.20;;;;;;;8.01;50.49;101987.88;5025009;28;20382;-78
2023/03/19 07:31:56;;;;;;;18.33;13.17;;;;;;;8.12;50.40;102002.84;5025330;28;20408;-78
2023/03/19 07:34:22;;;;;;;18.17;12.27;;;;;;;8.29;50.15;101992.75;5025043;28;20396;-78
2023/03/19 07:36:48;;;;;;;19.40;13.57;;;;;;;8.41;49.82;101995.22;5029614;28;20402;-78
2023/03/19 07:39:14;;;;;;;18.15;12.50;;;;;;;8.61;49.08;101993.63;5028570;28;20374;-77
2023/03/19 07:41:40;;;;;;;19.10;13.68;;;;;;;8.65;48.90;101988.94;5030629;28;20412;-76
2023/03/19 07:44:05;;;;;;;18.20;13.15;;;;;;;8.77;48.54;101997.69;5001744;28;20380;-77
2023/03/19 07:46:31;;;;;;;17.25;12.45;;;;;;;8.88;48.13;101994.16;5024272;28;20471;-78
2023/03/19 07:48:56;;;;;;;19.45;13.20;;;;;;;8.85;47.87;101989.94;5029200;28;20378;-77
2023/03/19 07:51:22;;;;;;;17.27;12.07;;;;;;;8.91;48.00;101988.56;5031097;28;20437;-78
2023/03/19 07:53:47;;;;;;;17.50;13.05;;;;;;;8.96;47.96;101983.75;5036208;28;20372;-78
2023/03/19 07:56:13;;;;;;;21.30;14.05;;;;;;;9.04;47.44;101981.31;5034148;28;20409;-78
2023/03/19 07:58:39;;;;;;;20.50;13.45;;;;;;;9.11;47.25;101978.97;5049766;28;20416;-78
2023/03/19 08:01:04;;;;;;;19.00;13.07;;;;;;;9.22;47.39;101980.72;5046399;28;20378;-77
2023/03/19 08:03:30;;;;;;;20.17;13.67;;;;;;;9.37;46.72;101984.72;5030002;28;21070;-77
2023/03/19 08:05:55;;;;;;;19.87;12.93;;;;;;;9.40;46.53;101976.53;5027364;28;20425;-79
2023/03/19 08:08:21;;;;;;;17.67;11.23;;;;;;;9.51;45.79;101979.06;5032642;28;20375;-78
2023/03/19 08:10:49;;;;;;;15.93;11.77;;;;;;;9.52;45.87;101982.56;5026823;28;20417;-77
2023/03/19 08:13:15;;;;;;;17.10;10.13;;;;;;;9.55;45.03;101984.94;5032490;28;20402;-78
2023/03/19 08:15:40;;;;;;;16.97;11.30;;;;;;;9.53;44.37;101986.91;5030025;28;20859;-78
2023/03/19 08:18:06;;;;;;;18.05;11.05;;;;;;;9.70;44.59;101991.56;5032235;28;20395;-77
2023/03/19 08:20:32;;;;;;;17.42;11.68;;;;;;;9.78;44.01;101993.56;5029430;28;20707;-78
2023/03/19 08:22:57;;;;;;;18.85;12.48;;;;;;;9.76;43.65;101987.56;5022280;28;20384;-78
2023/03/19 08:25:23;;;;;;;16.73;12.23;;;;;;;9.83;44.40;101998.44;5025645;28;20374;-79
2023/03/19 08:27:49;;;;;;;19.13;12.70;;;;;;;9.98;44.24;101986.50;5028548;28;20385;-79
2023/03/19 08:30:16;;;;;;;19.80;14.27;;;;;;;10.18;44.22;101982.09;5028100;28;20408;-79
2023/03/19 08:32:43;;;;;;;15.80;11.75;;;;;;;10.31;44.40;101988.00;5019577;28;20876;-79
2023/03/19 08:35:09;;;;;;;16.83;11.32;;;;;;;10.38;43.58;101990.13;5023027;28;20401;-78
2023/03/19 08:37:35;;;;;;;16.15;11.00;;;;;;;10.47;43.51;101994.59;5032950;28;20390;-80
2023/03/19 08:40:00;;;;;;;17.50;12.82;;;;;;;10.64;43.39;101982.47;5029922;28;20387;-79
2023/03/19 08:42:26;;;;;;;15.88;10.80;;;;;;;10.74;43.05;101982.47;5017982;28;20426;-79
2023/03/19 08:44:52;;;;;;;16.37;9.40;;;;;;;10.85;42.52;101985.81;5027980;28;20398;-79
2023/03/19 08:47:17;;;;;;;13.03;9.10;;;;;;;10.80;41.89;101987.22;5028016;28;20457;-78
2023/03/19 08:49:43;;;;;;;13.27;8.57;;;;;;;10.78;41.71;101979.38;5029305;28;20374;-78
2023/03/19 08:52:08;;;;;;;13.60;7.97;;;;;;;10.69;41.46;101970.44;5028888;28;20459;-80
2023/03/19 08:54:35;;;;;;;13.47;10.23;;;;;;;10.63;41.72;101965.72;5021813;28;20479;-77
2023/03/19 08:57:01;;;;;;;12.83;9.47;;;;;;;10.86;41.68;101974.22;5028293;28;20460;-80
2023/03/19 08:59:27;;;;;;;12.53;9.47;;;;;;;11.06;41.75;101968.91;5032957;28;20394;-79
2023/03/19 09:01:52;;;;;;;11.10;8.48;;;;;;;11.22;41.21;101969.16;5032025;28;20374;-76
2023/03/19 09:04:19;;;;;;;12.80;7.80;;;;;;;11.21;40.46;101961.34;5031561;28;20886;-78
2023/03/19 09:06:49;;;;;;;10.95;7.70;;;;;;;11.24;40.37;101953.09;5031449;28;20382;-77
2023/03/19 09:09:15;;;;;;;13.52;8.90;;;;;;;11.35;40.95;101952.09;5033400;28;20401;-79
2023/03/19 09:11:40;;;;;;;11.18;8.13;;;;;;;11.42;40.49;101945.22;5032477;28;20406;-78
2023/03/19 09:14:06;;;;;;;14.50;9.00;;;;;;;11.43;40.51;101938.91;5021350;28;20424;-78
2023/03/19 09:16:32;;;;;;;15.50;9.27;;;;;;;11.40;41.06;101941.88;5030819;28;20418;-78
2023/03/19 09:18:57;;;;;;;14.97;9.90;;;;;;;11.59;40.49;101938.28;5031945;28;20450;-78
2023/03/19 09:21:22;;;;;;;15.30;10.87;;;;;;;11.70;41.00;101934.59;5032408;28;20436;-78
2023/03/19 09:23:48;;;;;;;14.60;9.23;;;;;;;11.73;40.66;101931.66;5033470;28;20390;-77
2023/03/19 09:26:14;;;;;;;12.13;8.15;;;;;;;11.66;39.82;101923.44;5031073;28;20378;-79
2023/03/19 09:28:39;;;;;;;11.70;8.37;;;;;;;11.60;40.23;101927.53;5031822;28;20385;-79
2023/03/19 09:31:08;;;;;;;14.07;8.33;;;;;;;11.62;40.16;101925.53;5032730;28;20449;-77
2023/03/19 09:33:34;;;;;;;13.35;8.50;;;;;;;11.78;40.08;101940.03;5031146;28;20379;-78
2023/03/19 09:36:00;;;;;;;11.63;8.77;;;;;;;11.88;39.63;101934.66;5020411;28;20869;-78
2023/03/19 09:38:27;;;;;;;12.18;9.05;;;;;;;11.91;39.59;101929.06;5032514;28;20829;-80
2023/03/19 09:41:19;;;;;;;12.25;8.48;;;;;;;11.85;39.68;101931.31;5033177;28;20862;-78
2023/03/19 09:44:01;;;;;;;11.15;7.97;;;;;;;11.95;39.76;101928.63;5032212;28;20391;-76
2023/03/19 09:46:35;;;;;;;11.32;7.90;;;;;;;12.03;39.74;101926.06;5032127;28;20370;-80
2023/03/19 09:49:14;;;;;;;10.82;7.50;;;;;;;12.17;39.80;101930.03;5031676;28;20370;-79
2023/03/19 09:51:57;;;;;;;12.40;7.80;;;;;;;12.32;39.65;101927.69;5031946;28;20890;-77
2023/03/19 09:54:28;;;;;;;9.98;7.53;;;;;;;12.38;39.91;101912.94;5031774;28;20397;-79
2023/03/19 09:56:54;;;;;;;11.50;8.98;;;;;;;12.51;39.74;101917.88;5031893;28;20386;-77
2023/03/19 09:59:26;;;;;;;10.45;7.70;;;;;;;12.57;39.43;101917.28;5047625;28;20383;-78
2023/03/19 10:02:17;;;;;;;13.40;7.80;;;;;;;12.55;39.55;101911.25;5025038;28;20372;-78
2023/03/19 10:05:09;;;;;;;12.35;7.13;;;;;;;12.63;39.13;101901.50;5030736;28;20790;-78
2023/03/19 10:07:47;;;;;;;9.68;7.30;;;;;;;12.66;39.17;101895.06;5018119;28;20788;-77
2023/03/19 10:10:59;;;;;;;9.60;7.45;;;;;;;12.87;40.94;101883.22;5030643;28;20406;-80
2023/03/19 10:13:24;;;;;;;10.23;7.07;;;;;;;12.86;38.48;101892.22;5027947;28;20426;-76
2023/03/19 10:15:52;;;;;;;10.97;6.57;;;;;;;12.80;38.76;101880.34;5031254;28;20401;-79
2023/03/19 10:18:30;;;;;;;9.30;6.40;;;;;;;12.85;38.20;101882.53;5032073;28;20570;-79
2023/03/19 10:21:10;;;;;;;9.35;6.30;;;;;;;12.79;38.20;101871.53;5030530;28;20374;-77
2023/03/19 10:23:55;;;;;;;9.33;5.93;;;;;;;12.75;38.31;101867.53;5031848;28;20736;-78
2023/03/19 10:26:28;;;;;;;9.07;6.10;;;;;;;12.89;38.67;101862.59;5032193;28;20427;-78
2023/03/19 10:29:02;;;;;;;9.83;6.33;;;;;;;13.05;38.93;101864.53;5031392;28;20436;-77
2023/03/19 10:31:41;;;;;;;11.45;6.28;;;;;;;13.14;38.72;101861.78;5011635;28;20435;-76
2023/03/19 10:34:31;;;;;;;10.02;6.28;;;;;;;13.31;40.30;101861.88;5028011;28;20444;-77
2023/03/19 10:37:02;;;;;;;10.02;6.45;;;;;;;13.32;39.99;101856.38;5031380;28;20405;-78
2023/03/19 10:39:31;;;;;;;9.38;6.47;;;;;;;13.27;39.15;101868.47;5022755;28;20396;-78
